Time;durP1;ratioP1;P1;durP2;ratioP2;P2;SDS_P1;SDS_P2;PMS_P1;PMS_P2;Temp;Humidity;BMP_temperature;BMP_pressure;BME280_temperature;BME280_humidity;BME280_pressure;Samples;Min_cycle;Max_cycle;Signal;HPM_P1;HPM_P2
2023/05/24 00:01:41;;;;;;;20.42;4.05;;;11.80;99.90;;;;;;6281290;22;20015;-92
2023/05/24 00:04:09;;;;;;;36.47;5.35;;;11.80;99.90;;;;;;6281900;22;20442;-93
2023/05/24 00:06:36;;;;;;;12.50;3.80;;;11.70;99.90;;;;;;6281897;22;20079;-92
2023/05/24 00:09:02;;;;;;;20.58;4.80;;;11.70;99.90;;;;;;6281448;22;20080;-90
2023/05/24 00:11:28;;;;;;;17.13;3.78;;;11.70;99.90;;;;;;6281553;22;20090;-93
2023/05/24 00:13:53;;;;;;;19.90;4.07;;;11.70;99.90;;;;;;6281345;22;20558;-92
2023/05/24 00:16:19;;;;;;;15.20;2.95;;;11.70;99.90;;;;;;6283223;22;20007;-91
2023/05/24 00:18:46;;;;;;;12.82;3.47;;;11.70;99.90;;;;;;6298359;22;20004;-90
2023/05/24 00:21:13;;;;;;;20.60;3.67;;;11.70;99.90;;;;;;6282091;22;20335;-91
2023/05/24 00:23:40;;;;;;;19.40;4.03;;;11.60;99.90;;;;;;6282347;22;20627;-91
2023/05/24 00:26:07;;;;;;;17.58;3.95;;;11.70;99.90;;;;;;6282571;22;20027;-93
2023/05/24 00:28:33;;;;;;;18.48;4.18;;;11.60;99.90;;;;;;6284909;22;20030;-93
2023/05/24 00:30:59;;;;;;;13.73;3.60;;;11.60;99.90;;;;;;6303163;22;19999;-93
2023/05/24 00:33:26;;;;;;;14.93;3.67;;;11.60;99.90;;;;;;6290599;22;20013;-95
2023/05/24 00:35:55;;;;;;;14.40;3.55;;;11.60;99.90;;;;;;6284595;22;20003;-92
2023/05/24 00:38:25;;;;;;;18.48;3.85;;;11.60;99.90;;;;;;6283756;22;20431;-94
2023/05/24 00:40:51;;;;;;;16.65;4.00;;;11.60;99.90;;;;;;6284487;22;20026;-92
2023/05/24 00:43:17;;;;;;;16.85;4.00;;;11.60;99.90;;;;;;6283599;22;20003;-93
2023/05/24 00:45:44;;;;;;;18.88;4.63;;;11.60;99.90;;;;;;6291086;22;20003;-92
2023/05/24 00:48:10;;;;;;;15.80;3.97;;;11.50;99.90;;;;;;6292346;22;20014;-92
2023/05/24 00:50:39;;;;;;;14.80;3.58;;;11.50;99.90;;;;;;6291726;22;20004;-93
2023/05/24 00:53:06;;;;;;;25.73;4.63;;;11.50;99.90;;;;;;6294475;22;20015;-93
2023/05/24 00:55:35;;;;;;;22.75;4.28;;;11.50;99.90;;;;;;6320070;22;20035;-92
2023/05/24 00:58:01;;;;;;;16.35;3.95;;;11.50;99.90;;;;;;6298253;22;20028;-92
2023/05/24 01:00:28;;;;;;;18.77;4.30;;;11.50;99.90;;;;;;6288575;22;19999;-92
2023/05/24 01:02:56;;;;;;;22.33;4.18;;;11.50;99.90;;;;;;6287336;22;20022;-92
2023/05/24 01:05:22;;;;;;;14.35;4.13;;;11.50;99.90;;;;;;6288188;22;20007;-95
2023/05/24 01:08:10;;;;;;;13.50;3.85;;;11.50;99.90;;;;;;6286993;22;20492;-92
2023/05/24 01:10:55;;;;;;;12.80;3.58;;;11.40;99.90;;;;;;6285319;22;20056;-94
2023/05/24 01:13:46;;;;;;;24.70;4.15;;;11.40;99.90;;;;;;6284594;22;20015;-92
2023/05/24 01:16:22;;;;;;;23.17;4.90;;;11.40;99.90;;;;;;6284291;22;20022;-93
2023/05/24 01:18:59;;;;;;;16.30;4.00;;;11.40;99.90;;;;;;6283793;22;20010;-91
2023/05/24 01:22:05;;;;;;;15.68;4.00;;;11.40;99.90;;;;;;6283711;22;20007;-92
2023/05/24 01:25:00;;;;;;;16.77;4.13;;;11.40;99.90;;;;;;6268448;22;20042;-94
2023/05/24 01:27:27;;;;;;;15.98;4.20;;;11.40;99.90;;;;;;6283500;22;20007;-92
2023/05/24 01:29:55;;;;;;;19.85;5.18;;;11.40;99.90;;;;;;6283225;22;20030;-92
2023/05/24 01:32:21;;;;;;;23.85;5.85;;;11.30;99.90;;;;;;6282622;22;20398;-91
2023/05/24 01:34:47;;;;;;;27.25;6.13;;;11.30;99.90;;;;;;6282466;22;20011;-92
2023/05/24 01:37:13;;;;;;;15.82;4.85;;;11.30;99.90;;;;;;6283244;22;20061;-92
2023/05/24 01:39:39;;;;;;;20.33;5.43;;;11.30;99.90;;;;;;6283383;22;20007;-91
2023/05/24 01:42:21;;;;;;;23.60;5.63;;;11.30;99.90;;;;;;6300460;22;20003;-92
2023/05/24 01:45:05;;;;;;;26.05;5.90;;;11.40;99.90;;;;;;6282880;22;20011;-92
2023/05/24 01:47:40;;;;;;;17.40;5.03;;;11.40;99.90;;;;;;6283131;22;19995;-92
2023/05/24 01:50:17;;;;;;;26.05;5.57;;;11.40;99.90;;;;;;6282609;22;20442;-92
2023/05/24 01:52:45;;;;;;;21.75;5.22;;;11.40;99.90;;;;;;6285289;22;20140;-91
2023/05/24 01:55:14;;;;;;;21.85;4.93;;;11.40;99.90;;;;;;6289934;22;20003;-91
2023/05/24 01:57:43;;;;;;;21.15;5.63;;;11.40;99.90;;;;;;6287646;22;20003;-91
2023/05/24 02:00:10;;;;;;;14.30;4.93;;;11.50;99.90;;;;;;6284842;22;20089;-92
2023/05/24 02:02:36;;;;;;;21.02;4.95;;;11.50;99.90;;;;;;6283762;22;20035;-93
2023/05/24 02:05:02;;;;;;;15.30;4.03;;;11.50;99.90;;;;;;6283570;22;20129;-91
2023/05/24 02:07:28;;;;;;;14.43;4.07;;;11.50;99.90;;;;;;6283617;22;20014;-92
2023/05/24 02:09:54;;;;;;;18.30;4.38;;;11.50;99.90;;;;;;6283726;22;20015;-91
2023/05/24 02:12:20;;;;;;;19.02;4.30;;;11.50;99.90;;;;;;6283496;22;20422;-92
2023/05/24 02:14:45;;;;;;;15.43;3.63;;;11.50;99.90;;;;;;6282759;22;20015;-91
2023/05/24 02:17:11;;;;;;;20.40;4.72;;;11.50;99.90;;;;;;6282474;22;20027;-92
2023/05/24 02:19:37;;;;;;;20.08;4.35;;;11.50;99.90;;;;;;6282813;22;20031;-91
2023/05/24 02:22:03;;;;;;;9.18;3.70;;;11.50;99.90;;;;;;6282156;22;20003;-92
2023/05/24 02:24:28;;;;;;;17.15;4.13;;;11.50;99.90;;;;;;6282646;22;20339;-91
2023/05/24 02:26:54;;;;;;;18.65;4.53;;;11.50;99.90;;;;;;6282529;22;20099;-92
2023/05/24 02:29:21;;;;;;;18.15;4.28;;;11.40;99.90;;;;;;6282454;22;20006;-92
2023/05/24 02:31:49;;;;;;;13.40;3.58;;;11.40;99.90;;;;;;6282555;22;20007;-92
2023/05/24 02:34:15;;;;;;;17.90;4.35;;;11.30;99.90;;;;;;6282045;22;20328;-92
2023/05/24 02:36:41;;;;;;;12.30;4.05;;;11.30;99.90;;;;;;6309104;22;20034;-92
2023/05/24 02:39:07;;;;;;;14.95;4.35;;;11.30;99.90;;;;;;6282183;22;20007;-90
2023/05/24 02:41:32;;;;;;;19.92;4.10;;;11.30;99.90;;;;;;6281905;22;20053;-93
2023/05/24 02:43:58;;;;;;;17.52;4.00;;;11.20;99.90;;;;;;6281692;22;20009;-92
2023/05/24 02:46:24;;;;;;;15.38;4.07;;;11.20;99.90;;;;;;6281957;22;20006;-92
2023/05/24 02:48:50;;;;;;;14.75;4.47;;;11.20;99.90;;;;;;6281945;22;20008;-92
2023/05/24 02:51:16;;;;;;;13.60;4.53;;;11.20;99.90;;;;;;6281972;22;20007;-93
2023/05/24 02:53:42;;;;;;;14.32;3.80;;;11.20;99.90;;;;;;6282341;22;20323;-92
2023/05/24 02:56:08;;;;;;;14.40;4.55;;;11.10;99.90;;;;;;6309813;22;19999;-90
2023/05/24 02:58:39;;;;;;;16.63;4.75;;;11.10;99.90;;;;;;6282012;22;20049;-91
2023/05/24 03:01:05;;;;;;;17.70;4.55;;;11.10;99.90;;;;;;6282653;22;20011;-92
2023/05/24 03:03:30;;;;;;;17.88;4.00;;;11.10;99.90;;;;;;6291732;22;20087;-91
2023/05/24 03:05:56;;;;;;;17.00;4.50;;;11.10;99.90;;;;;;6294150;22;20033;-93
2023/05/24 03:08:22;;;;;;;18.33;4.50;;;11.00;99.90;;;;;;6287373;22;20007;-92
2023/05/24 03:10:47;;;;;;;15.60;5.55;;;11.00;99.90;;;;;;6287705;22;20014;-92
2023/05/24 03:13:13;;;;;;;16.77;4.50;;;11.00;99.90;;;;;;6304426;22;20054;-90
2023/05/24 03:15:39;;;;;;;14.63;4.05;;;11.00;99.90;;;;;;6305859;22;20003;-91
2023/05/24 03:18:05;;;;;;;10.75;4.05;;;10.90;99.90;;;;;;6302941;22;20006;-90
2023/05/24 03:20:32;;;;;;;16.58;4.97;;;10.90;99.90;;;;;;6305655;22;20011;-90
2023/05/24 03:22:58;;;;;;;16.40;4.07;;;10.90;99.90;;;;;;6300193;22;20003;-91
2023/05/24 03:25:23;;;;;;;14.27;4.40;;;10.90;99.90;;;;;;6305250;22;20014;-92
2023/05/24 03:27:49;;;;;;;19.75;4.10;;;10.80;99.90;;;;;;6303905;22;20051;-91
2023/05/24 03:30:15;;;;;;;16.23;5.15;;;10.80;99.90;;;;;;6288402;22;20491;-91
2023/05/24 03:32:40;;;;;;;8.02;3.38;;;10.80;99.90;;;;;;6284333;22;20511;-92
2023/05/24 03:35:06;;;;;;;14.50;5.30;;;10.80;99.90;;;;;;6283181;22;20031;-90
2023/05/24 03:37:32;;;;;;;15.60;5.22;;;10.80;99.90;;;;;;6282903;22;20049;-92
2023/05/24 03:39:58;;;;;;;17.55;4.38;;;10.80;99.90;;;;;;6282878;22;20003;-92
2023/05/24 03:42:23;;;;;;;16.10;4.30;;;10.80;99.90;;;;;;6282180;22;20014;-91
2023/05/24 03:44:49;;;;;;;11.98;4.45;;;10.70;99.90;;;;;;6282739;22;19995;-93
2023/05/24 03:47:15;;;;;;;14.15;3.83;;;10.70;99.90;;;;;;6282638;22;20089;-91
2023/05/24 03:49:41;;;;;;;11.60;4.72;;;10.70;99.90;;;;;;6282757;22;20087;-93
2023/05/24 03:52:06;;;;;;;16.20;4.45;;;10.70;99.90;;;;;;6310577;22;20003;-92
2023/05/24 03:54:32;;;;;;;11.52;4.43;;;10.60;99.90;;;;;;6283935;22;20015;-93
2023/05/24 03:56:59;;;;;;;11.65;4.38;;;10.60;99.90;;;;;;6282337;22;20054;-92
2023/05/24 03:59:24;;;;;;;12.85;4.65;;;10.60;99.90;;;;;;6282386;22;20003;-92
2023/05/24 04:01:50;;;;;;;12.13;3.95;;;10.50;99.90;;;;;;6281843;22;20018;-92
2023/05/24 04:04:16;;;;;;;12.65;4.30;;;10.50;99.90;;;;;;6282637;22;20037;-92
2023/05/24 04:06:41;;;;;;;13.13;4.20;;;10.50;99.90;;;;;;6281909;22;20007;-91
2023/05/24 04:09:08;;;;;;;20.35;4.32;;;10.50;99.90;;;;;;6281717;22;20419;-91
2023/05/24 04:11:35;;;;;;;12.50;4.18;;;10.50;99.90;;;;;;6281494;22;20011;-91
2023/05/24 04:14:01;;;;;;;12.20;4.13;;;10.50;99.90;;;;;;6281926;22;20445;-91
2023/05/24 04:16:32;;;;;;;14.05;4.18;;;10.40;99.90;;;;;;6281655;22;20438;-92
2023/05/24 04:19:00;;;;;;;16.25;4.70;;;10.40;99.90;;;;;;6281765;22;19995;-92
2023/05/24 04:21:26;;;;;;;15.77;4.68;;;10.40;99.90;;;;;;6281376;22;20010;-92
2023/05/24 04:23:52;;;;;;;13.35;4.30;;;10.30;99.90;;;;;;6281129;22;20023;-92
2023/05/24 04:26:20;;;;;;;15.52;4.32;;;10.30;99.90;;;;;;6283288;22;20003;-92
2023/05/24 04:28:45;;;;;;;22.25;4.97;;;10.30;99.90;;;;;;6283832;22;20473;-91
2023/05/24 04:31:11;;;;;;;10.82;4.65;;;10.30;99.90;;;;;;6282688;22;20004;-92
2023/05/24 04:33:38;;;;;;;15.15;4.60;;;10.30;99.90;;;;;;6282670;22;20015;-90
2023/05/24 04:36:04;;;;;;;16.58;4.50;;;10.40;99.90;;;;;;6282712;22;20018;-91
2023/05/24 04:38:31;;;;;;;14.75;4.55;;;10.40;99.90;;;;;;6283679;22;20003;-92
2023/05/24 04:40:58;;;;;;;18.17;5.68;;;10.40;99.90;;;;;;6286620;22;20011;-92
2023/05/24 04:43:25;;;;;;;13.52;4.30;;;10.40;99.90;;;;;;6293130;22;20089;-91
2023/05/24 04:45:53;;;;;;;12.75;4.20;;;10.40;99.90;;;;;;6293574;22;20090;-90
2023/05/24 04:48:20;;;;;;;11.93;4.00;;;10.40;99.90;;;;;;6286905;22;20007;-91
2023/05/24 04:50:46;;;;;;;13.35;4.07;;;10.40;99.90;;;;;;6285221;22;20026;-93
2023/05/24 04:53:13;;;;;;;12.88;5.05;;;10.40;99.90;;;;;;6284190;22;20022;-90
2023/05/24 04:55:39;;;;;;;12.30;4.35;;;10.40;99.90;;;;;;6284138;22;20014;-92
2023/05/24 04:58:04;;;;;;;16.30;4.63;;;10.40;99.90;;;;;;6283619;22;20086;-90
2023/05/24 05:00:31;;;;;;;14.68;4.22;;;10.40;99.90;;;;;;6283731;22;19999;-89
2023/05/24 05:02:57;;;;;;;9.88;4.07;;;10.40;99.90;;;;;;6283642;22;20018;-91
2023/05/24 05:05:23;;;;;;;13.30;4.35;;;10.40;99.90;;;;;;6283302;22;20144;-91
2023/05/24 05:07:53;;;;;;;13.85;4.60;;;10.40;99.90;;;;;;6283254;22;19999;-92
2023/05/24 05:10:18;;;;;;;19.45;5.05;;;10.40;99.90;;;;;;6283893;22;20019;-92
2023/05/24 05:12:44;;;;;;;14.00;4.88;;;10.40;99.90;;;;;;6283276;22;20002;-93
2023/05/24 05:15:10;;;;;;;16.55;3.92;;;10.40;99.90;;;;;;6283791;22;20003;-94
2023/05/24 05:17:36;;;;;;;13.30;4.38;;;10.40;99.90;;;;;;6283524;22;20038;-93
2023/05/24 05:20:03;;;;;;;11.40;3.83;;;10.30;99.90;;;;;;6284269;22;20491;-92
2023/05/24 05:22:28;;;;;;;18.58;6.65;;;10.30;99.90;;;;;;6282832;22;20349;-92
2023/05/24 05:24:54;;;;;;;14.23;4.88;;;10.40;99.90;;;;;;6283004;22;20005;-93
2023/05/24 05:27:20;;;;;;;16.00;4.07;;;10.40;99.90;;;;;;6283244;22;20439;-93
2023/05/24 05:29:46;;;;;;;13.05;4.75;;;10.40;99.90;;;;;;6282871;22;19999;-92
2023/05/24 05:32:11;;;;;;;13.38;3.83;;;10.40;99.90;;;;;;6283532;22;20007;-92
2023/05/24 05:34:37;;;;;;;14.95;4.80;;;10.30;99.90;;;;;;6282870;22;20015;-91
2023/05/24 05:37:03;;;;;;;10.98;3.92;;;10.40;99.90;;;;;;6282962;22;20065;-92
2023/05/24 05:39:30;;;;;;;12.18;4.28;;;10.40;99.90;;;;;;6282804;22;20014;-92
2023/05/24 05:42:01;;;;;;;12.35;3.97;;;10.40;99.90;;;;;;6282885;22;20011;-93
2023/05/24 05:44:27;;;;;;;14.48;4.35;;;10.40;99.90;;;;;;6282512;22;20026;-92
2023/05/24 05:46:52;;;;;;;15.15;4.10;;;10.40;99.90;;;;;;6282862;22;20003;-92
2023/05/24 05:49:19;;;;;;;14.68;4.35;;;10.50;99.90;;;;;;6282672;22;20515;-93
2023/05/24 05:51:45;;;;;;;15.20;4.35;;;10.50;99.90;;;;;;6284258;22;20061;-94
2023/05/24 05:54:17;;;;;;;14.23;4.35;;;10.50;99.90;;;;;;6283176;22;20050;-93
2023/05/24 05:56:46;;;;;;;15.45;4.55;;;10.60;99.90;;;;;;6312717;22;20434;-92
2023/05/24 05:59:15;;;;;;;13.38;4.07;;;10.60;99.90;;;;;;6283661;22;20011;-93
2023/05/24 06:01:41;;;;;;;9.82;4.07;;;10.70;99.90;;;;;;6277398;22;20033;-93
2023/05/24 06:04:06;;;;;;;15.30;4.40;;;10.70;99.90;;;;;;6277844;22;20069;-93
2023/05/24 06:06:32;;;;;;;10.00;3.60;;;10.80;99.90;;;;;;6277519;22;20000;-93
2023/05/24 06:08:59;;;;;;;11.68;3.78;;;10.90;99.90;;;;;;6280406;22;20493;-93
2023/05/24 06:11:28;;;;;;;20.92;5.65;;;10.90;99.90;;;;;;6290863;22;20007;-91
2023/05/24 06:13:54;;;;;;;15.38;4.15;;;11.00;99.90;;;;;;6289479;22;20011;-94
2023/05/24 06:16:20;;;;;;;14.20;4.45;;;11.00;99.90;;;;;;6278895;22;20011;-92
2023/05/24 06:18:48;;;;;;;19.30;4.15;;;11.10;99.90;;;;;;6278745;22;20007;-93
2023/05/24 06:21:14;;;;;;;30.95;5.60;;;11.10;99.90;;;;;;6279191;22;20037;-92
2023/05/24 06:23:40;;;;;;;21.88;4.20;;;11.20;99.90;;;;;;6279650;22;20008;-90
2023/05/24 06:26:09;;;;;;;8.48;3.97;;;11.20;99.90;;;;;;6278060;22;20008;-91
2023/05/24 06:28:37;;;;;;;12.23;4.10;;;11.30;99.90;;;;;;6276611;22;20411;-92
2023/05/24 06:31:04;;;;;;;14.52;4.28;;;11.40;99.90;;;;;;6276536;22;20007;-92
2023/05/24 06:33:31;;;;;;;17.92;4.45;;;11.40;99.90;;;;;;6277707;22;20016;-92
2023/05/24 06:35:57;;;;;;;20.40;5.03;;;11.50;99.90;;;;;;6277088;22;20443;-92
2023/05/24 06:38:23;;;;;;;16.33;4.32;;;11.50;99.90;;;;;;6276891;22;20007;-90
2023/05/24 06:40:49;;;;;;;11.00;4.05;;;11.50;99.90;;;;;;6277961;22;20008;-90
2023/05/24 06:43:16;;;;;;;9.80;3.38;;;11.60;99.90;;;;;;6276372;22;19999;-93
2023/05/24 06:45:42;;;;;;;13.70;4.13;;;11.70;99.90;;;;;;6277543;22;20532;-91
2023/05/24 06:48:07;;;;;;;20.45;4.60;;;11.70;99.90;;;;;;6277513;22;20000;-93
2023/05/24 06:50:35;;;;;;;11.57;4.03;;;11.70;99.90;;;;;;6276838;22;20015;-91
2023/05/24 06:53:01;;;;;;;10.60;3.47;;;11.80;99.90;;;;;;6276238;22;20473;-93
2023/05/24 06:55:27;;;;;;;12.77;3.85;;;11.80;99.90;;;;;;6276443;22;20008;-92
2023/05/24 06:57:53;;;;;;;10.90;3.58;;;11.90;99.90;;;;;;6277733;22;20308;-92
2023/05/24 07:00:20;;;;;;;13.15;3.95;;;12.00;99.90;;;;;;6278137;22;20042;-92
2023/05/24 07:02:46;;;;;;;13.13;3.67;;;12.10;99.90;;;;;;6278567;22;20042;-93
2023/05/24 07:05:11;;;;;;;14.00;3.42;;;12.20;99.90;;;;;;6278433;22;20004;-93
2023/05/24 07:07:41;;;;;;;14.98;3.65;;;12.20;99.90;;;;;;6278611;22;20003;-93
2023/05/24 07:10:09;;;;;;;9.95;3.30;;;12.30;99.90;;;;;;6279005;22;20004;-94
2023/05/24 07:12:35;;;;;;;13.30;4.10;;;12.40;99.90;;;;;;6281307;22;20003;-94
2023/05/24 07:15:01;;;;;;;15.07;3.55;;;12.40;99.90;;;;;;6280821;22;20033;-92
2023/05/24 07:22:36;;;;;;;14.95;4.82;;;12.70;99.90;;;;;;6257414;22;20000;-94
2023/05/24 07:25:03;;;;;;;9.50;3.28;;;12.80;99.90;;;;;;6285038;22;20008;-94
2023/05/24 07:27:29;;;;;;;15.52;4.40;;;12.80;99.90;;;;;;6301471;22;19995;-94
2023/05/24 07:29:57;;;;;;;9.98;4.10;;;12.90;99.90;;;;;;6303319;22;20003;-94
2023/05/24 07:32:28;;;;;;;16.17;4.35;;;13.00;99.90;;;;;;6277835;22;20039;-93
2023/05/24 07:34:54;;;;;;;11.98;3.65;;;13.00;99.90;;;;;;6277103;22;20084;-95
2023/05/24 07:37:23;;;;;;;12.45;3.53;;;13.00;99.90;;;;;;6309521;22;19992;-95
2023/05/24 07:39:51;;;;;;;11.55;3.15;;;13.10;99.90;;;;;;6333450;22;20094;-94
2023/05/24 07:42:17;;;;;;;10.05;3.80;;;13.20;99.90;;;;;;6325295;22;20011;-94
2023/05/24 07:44:43;;;;;;;10.68;3.50;;;13.30;99.90;;;;;;6312607;22;20017;-95
2023/05/24 07:47:10;;;;;;;11.00;3.85;;;13.40;99.90;;;;;;6289530;22;20082;-95
2023/05/24 07:49:36;;;;;;;10.00;3.85;;;13.40;99.90;;;;;;6312270;22;20007;-95
2023/05/24 07:52:03;;;;;;;11.98;4.10;;;13.50;99.90;;;;;;6310907;22;20429;-94
2023/05/24 07:54:28;;;;;;;17.23;4.05;;;13.60;99.90;;;;;;6307594;22;20019;-94
2023/05/24 07:56:56;;;;;;;12.55;4.15;;;13.70;99.90;;;;;;6313557;22;20399;-94
2023/05/24 07:59:22;;;;;;;13.73;4.15;;;13.70;99.90;;;;;;6314812;22;20018;-94
2023/05/24 08:01:48;;;;;;;7.45;3.35;;;13.90;99.90;;;;;;6314783;22;20067;-94
2023/05/24 08:04:15;;;;;;;12.38;3.80;;;14.10;99.90;;;;;;6311596;22;20074;-94
2023/05/24 08:06:40;;;;;;;18.73;3.65;;;14.20;99.90;;;;;;6308252;22;20048;-92
2023/05/24 08:09:08;;;;;;;9.55;3.55;;;14.40;99.90;;;;;;6307231;22;20015;-94
2023/05/24 08:11:33;;;;;;;9.95;3.67;;;14.50;99.90;;;;;;6308318;22;20023;-94
2023/05/24 08:13:59;;;;;;;10.13;3.03;;;14.60;99.90;;;;;;6308267;22;20015;-93
2023/05/24 08:16:25;;;;;;;7.10;3.35;;;14.80;99.90;;;;;;6305206;22;20007;-96
2023/05/24 08:18:51;;;;;;;15.88;4.10;;;14.90;99.90;;;;;;6284561;22;20000;-93
2023/05/24 08:21:17;;;;;;;10.65;3.35;;;15.00;99.90;;;;;;6278346;22;20334;-93
2023/05/24 08:23:43;;;;;;;13.18;3.80;;;15.10;99.20;;;;;;6277597;22;20077;-93
2023/05/24 08:26:09;;;;;;;11.38;4.78;;;15.20;98.70;;;;;;6278176;22;20027;-92
2023/05/24 08:28:34;;;;;;;8.55;3.47;;;15.30;98.30;;;;;;6276866;22;20003;-93
2023/05/24 08:31:00;;;;;;;11.70;3.90;;;15.50;97.90;;;;;;6277586;22;20504;-94
2023/05/24 08:33:26;;;;;;;11.35;3.58;;;15.60;97.60;;;;;;6276660;22;20026;-94
2023/05/24 08:35:52;;;;;;;10.85;3.70;;;15.70;97.10;;;;;;6277600;22;20085;-93
2023/05/24 08:38:17;;;;;;;14.68;3.90;;;15.90;96.30;;;;;;6277688;22;20128;-93
2023/05/24 08:41:36;;;;;;;12.68;3.50;;;15.90;95.30;;;;;;6288415;22;20019;-95
2023/05/24 09:06:25;;;;;;;11.07;3.55;;;17.50;88.00;;;;;;6320479;22;20034;-96
2023/05/24 09:08:54;;;;;;;10.95;3.10;;;17.60;85.70;;;;;;6326821;22;20011;-92
2023/05/24 09:13:57;;;;;;;9.65;2.70;;;17.90;82.20;;;;;;6290295;22;20011;-93
2023/05/24 09:16:23;;;;;;;8.85;3.15;;;18.00;81.10;;;;;;6303618;22;20035;-94
2023/05/24 09:18:52;;;;;;;12.77;3.75;;;18.10;80.80;;;;;;6327676;22;20030;-93
2023/05/24 09:21:19;;;;;;;8.77;3.38;;;18.20;81.10;;;;;;6335303;22;19984;-95
2023/05/24 09:23:48;;;;;;;14.73;3.40;;;18.30;81.40;;;;;;6322948;22;20346;-94
2023/05/24 09:26:17;;;;;;;11.65;3.72;;;18.40;81.50;;;;;;6300584;22;20002;-94
2023/05/24 09:28:43;;;;;;;12.38;3.88;;;18.50;81.40;;;;;;6329173;22;20004;-95
2023/05/24 09:31:12;;;;;;;10.43;3.38;;;18.60;81.30;;;;;;6317429;22;20033;-94
2023/05/24 09:33:40;;;;;;;12.05;3.50;;;18.70;78.10;;;;;;6324145;22;20003;-95
2023/05/24 09:36:07;;;;;;;11.07;3.08;;;18.70;77.30;;;;;;6326646;22;20027;-96
2023/05/24 09:38:34;;;;;;;10.88;3.35;;;18.80;77.00;;;;;;6322625;22;20026;-96
2023/05/24 09:41:09;;;;;;;8.32;3.10;;;18.90;75.60;;;;;;6293428;22;20003;-94
2023/05/24 09:43:48;;;;;;;9.52;3.20;;;19.00;75.00;;;;;;6324549;22;20007;-95
2023/05/24 09:46:18;;;;;;;10.88;3.40;;;19.10;74.90;;;;;;6321912;22;19999;-95
2023/05/24 09:48:57;;;;;;;12.82;3.45;;;19.20;74.00;;;;;;6289305;22;20011;-94
2023/05/24 09:51:24;;;;;;;8.25;3.00;;;19.30;74.10;;;;;;6316328;22;20011;-95
2023/05/24 09:53:58;;;;;;;12.18;3.47;;;19.40;73.10;;;;;;6333031;22;19999;-95
2023/05/24 09:56:25;;;;;;;12.68;3.15;;;19.60;72.60;;;;;;6334569;22;20025;-95
2023/05/24 09:58:54;;;;;;;10.57;3.45;;;19.80;72.20;;;;;;6328590;22;20007;-95
2023/05/24 10:01:28;;;;;;;8.52;3.30;;;19.90;71.10;;;;;;6329804;22;20006;-95
2023/05/24 10:04:01;;;;;;;5.93;2.42;;;19.90;69.20;;;;;;6329193;22;20003;-96
2023/05/24 10:06:38;;;;;;;13.35;3.83;;;20.10;68.60;;;;;;6307373;22;20021;-95
2023/05/24 10:09:08;;;;;;;9.25;3.55;;;20.20;68.70;;;;;;6295919;22;20038;-95
2023/05/24 10:12:16;;;;;;;9.18;3.65;;;20.30;68.50;;;;;;6326402;22;19995;-95
2023/05/24 10:15:48;;;;;;;17.42;3.60;;;20.40;68.20;;;;;;6251217;22;20075;-95
2023/05/24 10:26:22;;;;;;;11.30;3.13;;;21.10;66.00;;;;;;6170933;22;20252;-92
2023/05/24 10:28:54;;;;;;;11.30;3.50;;;21.20;65.30;;;;;;6334345;22;19999;-93
2023/05/24 10:31:34;;;;;;;9.85;3.75;;;21.30;64.60;;;;;;6291951;22;20280;-94
2023/05/24 10:34:12;;;;;;;12.32;3.28;;;21.40;63.40;;;;;;6294049;22;20034;-94
2023/05/24 10:37:02;;;;;;;15.68;3.92;;;21.40;62.30;;;;;;6329111;22;20007;-94
2023/05/24 10:39:31;;;;;;;12.52;3.90;;;21.60;62.70;;;;;;6274608;22;20053;-94
2023/05/24 10:42:01;;;;;;;11.57;3.33;;;21.70;63.00;;;;;;6290075;22;20007;-94
2023/05/24 10:44:30;;;;;;;7.97;3.50;;;22.00;62.90;;;;;;6317902;22;20007;-95
2023/05/24 10:47:13;;;;;;;15.98;3.60;;;21.90;62.70;;;;;;6320948;22;20056;-94
2023/05/24 10:49:52;;;;;;;14.15;3.85;;;22.00;63.40;;;;;;6318428;22;20118;-94
2023/05/24 10:52:21;;;;;;;8.23;3.72;;;22.20;63.90;;;;;;6296781;22;20019;-93
2023/05/24 10:55:18;;;;;;;8.40;3.83;;;22.30;63.40;;;;;;6292500;22;20461;-92
2023/05/24 10:57:44;;;;;;;8.70;3.58;;;22.50;62.40;;;;;;6258745;22;19999;-94
2023/05/24 11:00:19;;;;;;;10.98;3.45;;;22.50;61.30;;;;;;6286059;22;20086;-94
2023/05/24 11:02:48;;;;;;;15.23;3.63;;;22.60;60.30;;;;;;6292764;22;20011;-95
2023/05/24 11:05:15;;;;;;;12.20;3.92;;;22.70;60.10;;;;;;6287174;22;20010;-94
2023/05/24 11:07:43;;;;;;;10.15;3.78;;;22.90;59.60;;;;;;6289075;22;20010;-94
2023/05/24 11:10:15;;;;;;;18.63;3.70;;;23.00;59.70;;;;;;6306332;22;20011;-94
2023/05/24 11:12:43;;;;;;;8.98;3.70;;;23.10;59.70;;;;;;6312902;22;20007;-93
2023/05/24 11:15:10;;;;;;;10.48;4.50;;;23.20;59.50;;;;;;6291734;22;20010;-95
2023/05/24 11:18:14;;;;;;;20.08;5.43;;;23.20;59.90;;;;;;6327923;22;20058;-95
2023/05/24 11:20:46;;;;;;;15.68;4.30;;;23.30;59.90;;;;;;6277691;22;20051;-94
2023/05/24 11:23:14;;;;;;;14.00;4.05;;;23.30;59.60;;;;;;6262653;22;20004;-93
2023/05/24 11:25:41;;;;;;;15.60;3.72;;;23.30;59.50;;;;;;6283180;22;20010;-95
2023/05/24 11:28:11;;;;;;;8.85;3.92;;;23.40;59.50;;;;;;6284075;22;20007;-95
2023/05/24 11:30:44;;;;;;;11.90;3.78;;;23.60;59.30;;;;;;6283993;22;20007;-95
2023/05/24 11:33:18;;;;;;;9.95;3.55;;;23.80;58.50;;;;;;6292292;22;20008;-96
2023/05/24 11:35:45;;;;;;;11.25;3.45;;;23.90;57.80;;;;;;6287319;22;20493;-94
2023/05/24 11:38:15;;;;;;;11.63;4.03;;;23.90;57.30;;;;;;6265836;22;20000;-93
2023/05/24 11:40:45;;;;;;;9.73;3.65;;;23.70;57.30;;;;;;6306661;22;20014;-94
2023/05/24 11:43:13;;;;;;;14.75;4.03;;;23.60;57.70;;;;;;6305424;22;20013;-94
2023/05/24 11:45:41;;;;;;;7.85;3.53;;;23.60;57.70;;;;;;6301264;22;19999;-95
2023/05/24 11:48:08;;;;;;;12.45;3.00;;;23.70;57.50;;;;;;6300374;22;20007;-93
2023/05/24 11:50:42;;;;;;;11.57;4.05;;;23.70;57.20;;;;;;6301361;22;20138;-94
2023/05/24 11:53:12;;;;;;;12.40;3.63;;;23.80;57.30;;;;;;6296729;22;20327;-93
2023/05/24 11:55:40;;;;;;;10.73;3.67;;;24.00;57.00;;;;;;6294259;22;20003;-94
2023/05/24 11:58:15;;;;;;;11.77;3.55;;;24.10;56.70;;;;;;6285861;22;20023;-93
2023/05/24 12:00:42;;;;;;;7.68;3.25;;;24.10;56.60;;;;;;6285567;22;20011;-93
2023/05/24 12:03:08;;;;;;;10.68;3.63;;;24.10;56.50;;;;;;6284278;22;20007;-95
2023/05/24 12:05:37;;;;;;;13.82;4.10;;;23.90;56.00;;;;;;6284321;22;20240;-93
2023/05/24 12:08:04;;;;;;;13.35;4.75;;;23.80;55.90;;;;;;6283490;22;20093;-93
2023/05/24 12:10:34;;;;;;;10.63;3.78;;;23.50;56.10;;;;;;6314132;22;20023;-94
2023/05/24 12:13:17;;;;;;;11.70;3.63;;;23.20;56.00;;;;;;6288836;22;20003;-95
2023/05/24 12:15:43;;;;;;;13.45;3.40;;;23.00;56.60;;;;;;6292629;22;20003;-93
2023/05/24 12:18:29;;;;;;;16.65;4.82;;;22.80;57.00;;;;;;6258871;22;20095;-93
2023/05/24 12:20:55;;;;;;;13.40;3.92;;;22.60;57.00;;;;;;6263069;22;20330;-94
2023/05/24 12:23:31;;;;;;;13.02;3.80;;;22.30;57.30;;;;;;6262675;22;20004;-94
2023/05/24 12:26:00;;;;;;;11.48;3.80;;;22.10;58.00;;;;;;6283750;22;20007;-95
2023/05/24 12:28:31;;;;;;;11.30;3.55;;;22.00;58.60;;;;;;6285505;22;20443;-93
2023/05/24 12:30:56;;;;;;;14.57;4.47;;;22.20;59.10;;;;;;6284336;22;20085;-94
2023/05/24 12:33:23;;;;;;;13.93;4.13;;;22.60;59.20;;;;;;6285185;22;20011;-95
2023/05/24 12:35:49;;;;;;;13.98;3.65;;;22.90;59.00;;;;;;6286915;22;20007;-95
2023/05/24 12:38:23;;;;;;;16.08;4.15;;;23.10;58.70;;;;;;6287945;22;20057;-93
2023/05/24 12:40:50;;;;;;;10.82;3.67;;;23.30;58.40;;;;;;6316386;22;20003;-95
2023/05/24 12:43:16;;;;;;;12.10;3.85;;;23.70;58.20;;;;;;6288124;22;20034;-94
2023/05/24 12:45:42;;;;;;;12.07;3.92;;;23.90;57.50;;;;;;6290814;22;20435;-93
2023/05/24 12:48:07;;;;;;;11.05;3.17;;;24.10;57.60;;;;;;6292004;22;20036;-91
2023/05/24 12:50:33;;;;;;;14.88;4.03;;;24.10;57.30;;;;;;6288239;22;20010;-94
2023/05/24 12:53:00;;;;;;;12.80;3.85;;;24.00;56.90;;;;;;6290386;22;20007;-94
2023/05/24 12:55:26;;;;;;;13.55;3.97;;;24.00;56.80;;;;;;6284525;22;20007;-93
2023/05/24 12:57:54;;;;;;;14.50;3.90;;;24.00;56.40;;;;;;6285739;22;20026;-93
2023/05/24 13:00:22;;;;;;;12.05;4.57;;;24.10;56.20;;;;;;6281403;22;20008;-93
2023/05/24 13:02:48;;;;;;;15.77;4.47;;;24.20;56.10;;;;;;6283339;22;20000;-91
2023/05/24 13:05:14;;;;;;;11.65;3.90;;;24.40;55.90;;;;;;6284017;22;20026;-92
2023/05/24 13:07:43;;;;;;;12.73;3.78;;;24.60;55.90;;;;;;6283180;22;19999;-94
2023/05/24 13:10:12;;;;;;;16.27;4.50;;;24.80;55.90;;;;;;6284498;22;20030;-92
2023/05/24 13:12:40;;;;;;;17.38;4.53;;;24.80;55.40;;;;;;6283120;22;20469;-92
2023/05/24 13:15:07;;;;;;;12.88;4.35;;;25.00;55.40;;;;;;6286475;22;20011;-93
2023/05/24 13:17:33;;;;;;;16.10;4.28;;;25.10;55.00;;;;;;6288819;22;20014;-92
2023/05/24 13:20:04;;;;;;;17.33;4.90;;;25.20;54.30;;;;;;6296047;22;20431;-93
2023/05/24 13:22:30;;;;;;;12.60;3.83;;;25.10;54.00;;;;;;6314988;22;20022;-92
2023/05/24 13:24:56;;;;;;;13.57;3.92;;;25.10;53.90;;;;;;6284606;22;20030;-92